Suggestion Search

Define a bounding box (note: it will not wrap North/South over poles). If the range is zero degrees, a bounding box will not be used to constrain the search.

Centered On °   °

Match text in the suggestion title, science rationale or special notes. The search is case-insensitive. % is a wildcard (_ for a single character).

Find
Search

You may select science themes to limit query, otherwise suggestions from all themes will be returned.

Multiple values may be selected (shift + click).

  Rows per page
460 records found, displaying 1 to 100.[First/Prev] 1, 2, 3, 4, 5 [Next/Last]
ID Suggestion Title Latitude Longitude Repeat Created Observation ID
73576 Intersection of curvilinear ridge and butte 16.845 334.616 STEREO 2012-05-03 ESP_029264_1970
81686 Lava flowing into a crater in Elysium Planitia -1.283 161.869 STEREO 2012-11-29 ESP_037749_1785
85208 Gullies and lobate flow materials in northern Argyre region -37.812 314.947 STEREO 2013-02-20 ESP_035370_1420
85210 Mantle-filled Alcoves and possible pingos in NE Argyre -39.731 320.665 STEREO 2013-02-20
85212 Gullies to West of Dese Crater in eastern Argyre Basin -45.332 329.234 STEREO 2013-02-20
85214 Flat-floored linear depression in Southern Argyre -57.103 322.488 STEREO 2013-02-20
85216 Gullies incising mantle-filled alcove in western Argyre region -46.425 309.602 STEREO 2013-02-20 ESP_063748_1330
85506 Gullies incising mantle-filled alcove in western Argyre region -46.425 309.602 STEREO 2013-02-25 ESP_037401_1330
89474 Gullies and layers in Argyre Cavi -48.741 319.297 1 2013-06-14 ESP_059027_1310
103157 Gullies incising mantle-filled alcove in eastern Argyre region -46.425 309.602 STEREO 2013-02-20 ESP_037335_1330
106850 Potential flow lobes in southern Argyre region -57.677 318.316 STEREO 2014-09-26 ESP_048794_1220
106852 Potential flow lobes in southern Argyre region -57.677 318.316 STEREO 2014-09-26 ESP_048715_1220
106854 Lobate forms on slope in southern Argyre region -57.851 315.316 1 2014-09-26 ESP_058513_1220
106856 Lobate forms and potential glaciated massifs in southern Argyre region -56.660 323.780 1 2014-09-26 ESP_065950_1230
143090 Landslide on mesa in Xanthe Terra 11.727 322.882 1 2017-01-26 ESP_050033_1920
148610 Slopes in Noctis Labyrinthus -6.009 256.216 STEREO 2017-05-30 ESP_052119_1735
148612 Slopes in Noctis Labyrinthus -6.009 256.216 STEREO 2017-05-30 ESP_051064_1735
150180 Monitoring for changes in fresh landslide 27.408 76.712 1 2017-06-27
151094 Very fresh crater with steep slopes 34.494 305.086 STEREO 2017-08-08 ESP_052117_2150
151096 Very fresh crater with steep slopes 34.494 305.086 STEREO 2017-08-08 ESP_052394_2150
151238 Hummocky texture on ridge associated with Hale Crater ejecta -37.238 326.654 STEREO 2017-08-16 ESP_057708_1425
151240 Hummocky texture on ridge associated with Hale Crater ejecta -37.238 326.654 STEREO 2017-08-16 ESP_057840_1425
151242 Contact between Hale Crater ejecta and surrounding terrain -37.319 326.910 1 2017-08-16 ESP_052222_1425
154366 Gullies and inverted gullies 49.057 304.037 1 2017-12-18 ESP_053686_2295
154700 Gullies and crevasses on mesa 46.944 43.195 1 2018-01-03 ESP_054012_2275
154702 Gullies on mesa 47.004 43.282 1 2018-01-03 ESP_058852_2275
154704 Gully monitoring 53.607 26.309 1 2018-01-03 ESP_053973_2340
154862 Lineations on crater wall -16.836 343.994 1 2018-01-15
154864 Mound on crater floor 23.756 48.805 1 2018-01-15 ESP_054157_2040
155202 Crater and gully 38.961 300.273 1 2018-01-29 ESP_056693_2195
155204 Head of Mamers Valles 40.559 11.593 1 2018-01-29 ESP_062506_2210
155206 Lineated valley floor material in terrain north of Arabia region 40.429 15.467 1 2018-01-29 ESP_062519_2210
156400 Debris apron material between crater rim and adjacent massive -38.949 102.949 1 2018-03-14 ESP_059681_1405
156402 Multitemporal analysis of gullies previously identified in MOC data 46.997 335.014 1 2018-03-14 ESP_063984_2275
156404 Neighboring gullies with superposition relationships 37.856 354.185 1 2018-03-14 ESP_057100_2180
156406 Gullies with cratered aprons 37.360 308.475 1 2018-03-14 ESP_057616_2175
156792 Intracrater landslide south of Pyrrhae Chaos -31.380 328.290 1 2006-10-12
158004 Monitoring dune gullies in Kaiser Crater -46.731 20.147 1 2018-04-24 ESP_055332_1330
158006 Dune gully monitoring -45.798 36.658 1 2018-04-24 ESP_055305_1340
158010 Gullies in filled northern plains crater 48.113 326.724 1 2018-04-24 ESP_055439_2285
158012 Gullies -37.638 182.230 1 2018-04-24 ESP_055537_1420
158014 Multitemporal analysis of gullies 46.940 335.024 1 2018-04-24 ESP_063984_2275
158636 Monitor Proctor dune gullies changes -47.756 30.671 1 2018-05-07 ESP_055569_1320
158638 Mojave Crater northeastern rim with fans and slope features 7.838 327.222 1 2018-05-07 ESP_057655_1880
158640 Chaos material north of Hydaspis Chaos 4.775 335.601 STEREO 2018-05-07 ESP_057879_1850
158642 Chaos material north of Hydaspis Chaos 4.775 335.601 STEREO 2018-05-07 ESP_058736_1850
159122 Monitoring slopes of fresh 6-km diameter rayed crater 26.135 316.733 1 2018-05-22 ESP_058618_2065
160380 Monitoring gullies in Sisyphi Cavi -70.526 357.918 1 2018-06-18 ESP_056098_1095
160382 Faults in Granicus Valles 27.369 135.557 1 2018-06-18 ESP_057042_2075
160627 Monitoring slopes of fresh 6-km rayed crater 26.135 316.733 1 2018-05-22 ESP_055756_2065
161522 Gullies in Sisyphi Cavi -75.609 350.995 2 2018-07-03
161524 Gullies in Sisyphi Cavi -75.609 350.995 2 2018-07-03 ESP_066002_1040
161526 Gullies in Sisyphi Cavi -75.202 349.938 2 2018-07-03
161528 Gullies in Sisyphi Cavi -75.202 349.938 2 2018-07-03 ESP_058512_1045
161530 Possible gullies in Sisyphi Cavi -73.668 337.852 2 2018-07-03
161532 Possible gullies in Sisyphi Cavi -73.668 337.852 2 2018-07-03
161534 Gullies in Sisyphi Cavi -74.024 338.413 2 2018-07-03 ESP_064855_1060
161536 Gullies in Sisyphi Cavi -74.024 338.413 2 2018-07-03 ESP_057299_1060
161538 Gullies in Sisyphi Cavi -74.346 338.220 2 2018-07-03
161540 Gullies in Sisyphi Cavi -74.346 338.220 2 2018-07-03 ESP_058776_1055
161542 Gullies in Sisyphi Cavi -73.654 346.544 2 2018-07-03
161544 Gullies in Sisyphi Cavi -73.654 346.544 2 2018-07-03 ESP_057035_1060
161546 Gullies in Sisyphi Cavi -73.017 354.840 2 2018-07-03 ESP_065250_1070
161548 Gullies in Sisyphi Cavi -73.017 354.840 2 2018-07-03 ESP_057681_1070
161550 Gullies in Sisyphi Cavi -74.211 353.916 2 2018-07-03 ESP_056428_1055
161552 Gullies in Sisyphi Cavi -74.211 353.916 2 2018-07-03 ESP_057193_1055
161554 Gullies in Sisyphi Cavi -72.212 0.175 2 2018-07-03 ESP_056309_1075
161556 Gullies in Sisyphi Cavi -72.212 0.175 2 2018-07-03 ESP_057074_1075
161558 Gullies in Sisyphi Cavi -72.745 346.958 2 2018-07-03 ESP_065435_1070
161560 Gullies in Sisyphi Cavi -72.745 346.958 2 2018-07-03 ESP_057246_1070
161570 Alcoves in polar crater -75.605 35.315 1 2018-07-03 ESP_058418_1040
162504 Looking for gullies in Cavi Angusti -76.101 293.851 1 2018-07-17 ESP_056417_1035
162506 Search for gullies in Cavi Angusti -76.245 289.787 1 2018-07-17 ESP_056404_1035
162508 Search for gullies in Cavi Angusti -74.842 289.569 1 2018-07-17
162510 Search for gullies in Cavi Angusti -77.594 299.576 1 2018-07-17 ESP_066070_1025
162512 Gullies in Cavi Angusti -81.557 287.323 1 2018-07-17 ESP_057697_0985
163644 Monitoring gullies in Sisyphi Cavi -70.803 358.837 1 2018-08-13 ESP_056863_1090
163646 Monitoring gullies and dissected mantle -50.257 140.562 1 2018-08-13 ESP_064585_1295
163648 Monitoring well-preserved 1-km impact crater -51.982 131.596 1 2018-08-13 ESP_057003_1275
164040 Neighboring gullies with superposition relationships 37.856 354.185 1 2018-08-17 ESP_066199_2180
164042 Mojave Crater northeastern rim with fans and slope features 7.838 327.222 1 2018-08-17 ESP_065989_1880
164044 Gullies with cratered aprons 37.360 308.475 1 2018-08-17 ESP_057827_2175
164612 Evolution of post-dust storm on InSight landing site 4.770 136.160 5 2018-08-30 ESP_056897_1850
164614 Evolution of post-dust storm on InSight landing site 4.770 136.160 5 2018-08-30 ESP_057174_1850
164616 Evolution of post-dust storm on InSight landing site 4.770 136.160 5 2018-08-30
164618 Evolution of post-dust storm on InSight landing site 4.770 136.160 5 2018-08-30
164620 Evolution of post-dust storm on InSight landing site 4.770 136.160 5 2018-08-30
165054 Crypitic terrain monitoring -72.757 204.083 1 2018-09-11 ESP_056961_1070
165056 Looking for gullies in impact crater -50.072 287.074 1 2018-09-11 ESP_057947_1295
165058 Possible gullies in Sisyphi Cavi -71.486 2.809 1 2018-09-11 ESP_057430_1085
165060 Dunes in crater in Planum Chronium -59.831 133.638 1 2018-09-11 ESP_057280_1200
165926 Gully monitoring in Sisyphi Cavi -70.932 1.289 1 2018-09-26 ESP_057773_1090
166132 Slope monitoring in Hale Crater central peaks -35.646 323.478 14 2018-09-30 ESP_066029_1440
166134 Slope monitoring in Hale Crater central peaks -35.646 323.478 14 2018-09-30
166136 Slope monitoring in Hale Crater central peaks -35.646 323.478 14 2018-09-30 ESP_057629_1440
166138 Slope monitoring in Hale Crater central peaks -35.646 323.478 14 2018-09-30
166140 Slope monitoring in Hale Crater central peaks -35.646 323.478 14 2018-09-30
166142 Slope monitoring in Hale Crater central peaks -35.646 323.478 14 2018-09-30
166144 Slope monitoring in Hale Crater central peaks -35.646 323.478 14 2018-09-30
166146 Slope monitoring in Hale Crater central peaks -35.646 323.478 14 2018-09-30 ESP_058618_1445

Each suggestion is given a unique ID. A stereo suggestion will be made into a pair at the discretion of the Science Theme Lead.

Suggestion title.

Latitudes are expressed in planetocentric degrees.

Longitude are measured in degrees and range east from 0 to 360.

1 for a single suggestion, STEREO for a stereo suggestion, otherwise the number of suggestions in a seasonal or other repeat set.

The date on which the suggestion was created.

If the suggestion has been retired, a link to the observation page.

The username of the suggester.